Time;durP1;ratioP1;P1;durP2;ratioP2;P2;SDS_P1;SDS_P2;PMS_P1;PMS_P2;Temp;Humidity;BMP_temperature;BMP_pressure;BME280_temperature;BME280_humidity;BME280_pressure;Samples;Min_cycle;Max_cycle;Signal;HPM_P1;HPM_P2
2022/07/12 10:40:19;;;;;;;2.03;1.83;;;22.20;99.90;;;;;;5090927;27;20570;-71
2022/07/12 10:43:00;;;;;;;1.38;1.27;;;22.30;99.90;;;;;;5090954;28;20246;-72
2022/07/12 10:45:33;;;;;;;1.20;1.20;;;22.40;99.90;;;;;;5089543;28;20175;-72
2022/07/12 10:48:02;;;;;;;2.60;1.00;;;22.40;99.90;;;;;;5090814;28;20171;-71
2022/07/12 10:50:45;;;;;;;1.20;1.20;;;22.60;99.90;;;;;;5090759;28;20202;-69
2022/07/12 10:53:22;;;;;;;0.95;0.95;;;22.70;99.90;;;;;;5090631;28;20203;-71
2022/07/12 10:56:15;;;;;;;1.42;1.00;;;22.80;99.90;;;;;;5090630;28;20163;-75
2022/07/12 10:58:47;;;;;;;1.33;1.30;;;22.90;99.90;;;;;;5090482;28;20547;-72
2022/07/12 11:01:15;;;;;;;2.70;1.20;;;23.00;99.90;;;;;;5090480;28;20232;-75
2022/07/12 11:03:46;;;;;;;1.40;1.30;;;23.10;99.90;;;;;;5090495;28;20246;-71
2022/07/12 11:06:14;;;;;;;1.25;1.15;;;23.10;99.90;;;;;;5090451;28;20167;-71
2022/07/12 11:08:51;;;;;;;1.42;1.23;;;23.00;99.90;;;;;;5090351;28;20235;-73
2022/07/12 11:11:18;;;;;;;1.92;1.23;;;23.00;99.90;;;;;;5090179;28;20690;-72
2022/07/12 11:13:45;;;;;;;1.23;1.10;;;23.10;99.90;;;;;;5090250;28;20167;-71
2022/07/12 11:16:11;;;;;;;2.25;1.38;;;23.20;99.90;;;;;;5090386;28;20175;-70
2022/07/12 11:18:38;;;;;;;3.63;1.45;;;23.20;99.90;;;;;;5090153;28;20699;-70
2022/07/12 11:21:04;;;;;;;2.83;1.17;;;23.30;99.90;;;;;;5090202;28;20190;-71
2022/07/12 11:23:30;;;;;;;2.47;1.63;;;23.30;99.90;;;;;;5090142;28;20173;-72
2022/07/12 11:25:59;;;;;;;1.10;1.10;;;23.30;99.90;;;;;;5090132;28;20160;-71
2022/07/12 11:28:29;;;;;;;1.20;1.10;;;23.30;99.90;;;;;;5089998;28;20176;-71
2022/07/12 11:31:22;;;;;;;1.23;1.20;;;23.30;99.90;;;;;;5088878;28;20659;-71
2022/07/12 11:33:48;;;;;;;1.40;1.30;;;23.40;99.90;;;;;;5089623;28;20187;-71
2022/07/12 11:36:15;;;;;;;1.40;1.30;;;23.50;99.90;;;;;;5089890;28;20246;-71
2022/07/12 11:38:43;;;;;;;1.02;1.02;;;23.70;99.90;;;;;;5089515;28;20304;-71
2022/07/12 11:41:10;;;;;;;1.20;0.82;;;23.70;99.90;;;;;;5089766;28;20197;-70
2022/07/12 11:43:36;;;;;;;1.10;1.10;;;23.80;99.90;;;;;;5089755;28;20186;-70
2022/07/12 11:46:03;;;;;;;1.58;0.98;;;23.80;99.90;;;;;;5089647;28;20163;-70
2022/07/12 11:48:32;;;;;;;1.20;1.10;;;24.00;99.90;;;;;;5089640;28;20159;-70
2022/07/12 11:51:02;;;;;;;1.05;1.05;;;24.00;99.90;;;;;;5077154;28;20171;-70
2022/07/12 11:53:27;;;;;;;1.20;1.20;;;24.10;99.90;;;;;;5076094;28;20148;-70
2022/07/12 11:55:55;;;;;;;1.17;1.17;;;24.10;99.90;;;;;;5075983;28;20507;-70
2022/07/12 11:58:22;;;;;;;0.85;0.85;;;24.30;99.90;;;;;;5075852;28;20275;-70
2022/07/12 12:00:49;;;;;;;1.00;0.90;;;24.50;99.90;;;;;;5074646;28;20226;-71
2022/07/12 12:03:16;;;;;;;0.90;0.90;;;24.60;99.90;;;;;;5075834;28;20164;-71
2022/07/12 12:05:43;;;;;;;1.00;1.00;;;24.70;99.90;;;;;;5075734;28;20251;-71
2022/07/12 12:08:11;;;;;;;3.50;1.30;;;24.90;99.90;;;;;;5075831;28;20168;-71
2022/07/12 12:10:37;;;;;;;0.98;0.98;;;25.10;99.90;;;;;;5075711;28;20238;-71
2022/07/12 12:13:02;;;;;;;0.90;0.90;;;25.20;99.90;;;;;;5075748;28;20225;-71
2022/07/12 12:15:33;;;;;;;1.38;1.38;;;25.20;99.90;;;;;;5074371;28;20172;-71
2022/07/12 12:18:07;;;;;;;1.95;0.90;;;25.30;99.90;;;;;;5075554;28;20188;-71
2022/07/12 12:20:35;;;;;;;1.38;1.38;;;25.50;99.90;;;;;;5075544;28;20159;-70
2022/07/12 12:23:02;;;;;;;1.10;0.93;;;25.70;99.90;;;;;;5075457;28;20168;-70
2022/07/12 12:25:29;;;;;;;0.88;0.88;;;26.00;99.90;;;;;;5075451;28;20529;-70
2022/07/12 12:28:01;;;;;;;1.08;1.08;;;26.30;99.90;;;;;;5074171;28;20510;-71
2022/07/12 12:30:32;;;;;;;2.80;1.30;;;26.50;99.90;;;;;;5075400;28;20175;-71
2022/07/12 12:33:00;;;;;;;1.15;1.15;;;26.70;99.90;;;;;;5075351;28;20213;-71
2022/07/12 12:35:34;;;;;;;1.30;1.30;;;26.80;99.90;;;;;;5075340;28;20259;-73
2022/07/12 12:38:01;;;;;;;1.10;0.98;;;26.90;99.90;;;;;;5075077;28;20227;-72
2022/07/12 12:40:29;;;;;;;1.25;1.17;;;26.80;99.90;;;;;;5075303;28;20568;-72
2022/07/12 12:43:18;;;;;;;3.00;1.05;;;26.70;99.90;;;;;;5075184;28;20160;-71
2022/07/12 12:45:54;;;;;;;1.33;1.23;;;26.70;99.90;;;;;;5075090;28;20218;-71
2022/07/12 12:48:25;;;;;;;1.15;1.15;;;26.60;99.90;;;;;;5073770;28;20175;-71
2022/07/12 12:50:53;;;;;;;1.00;1.00;;;26.70;99.90;;;;;;5073681;28;20266;-71
2022/07/12 12:53:19;;;;;;;0.70;0.70;;;26.70;99.90;;;;;;5074868;28;20172;-73
2022/07/12 12:55:53;;;;;;;0.90;0.90;;;26.80;99.90;;;;;;5073456;28;20168;-69
2022/07/12 12:58:21;;;;;;;1.30;1.20;;;26.80;99.90;;;;;;5074510;28;20295;-72
2022/07/12 13:00:50;;;;;;;1.00;1.00;;;26.90;99.90;;;;;;5073692;28;20188;-71
2022/07/12 13:03:17;;;;;;;1.40;0.98;;;27.00;99.90;;;;;;5074070;28;20172;-70
2022/07/12 13:05:43;;;;;;;1.38;1.38;;;27.10;99.90;;;;;;5074522;28;20649;-70
2022/07/12 13:08:10;;;;;;;2.55;1.42;;;27.30;99.90;;;;;;5074548;28;20210;-70
2022/07/12 13:10:37;;;;;;;1.77;1.67;;;27.40;99.90;;;;;;5074493;28;20649;-71
2022/07/12 13:13:04;;;;;;;1.50;1.40;;;27.50;99.90;;;;;;5074549;28;20179;-73
2022/07/12 13:15:30;;;;;;;1.17;1.17;;;27.40;99.90;;;;;;5074438;28;20314;-72
2022/07/12 13:17:56;;;;;;;1.30;1.30;;;27.40;99.90;;;;;;5074313;28;20200;-70
2022/07/12 13:20:23;;;;;;;2.60;1.70;;;27.40;99.90;;;;;;5073117;28;20637;-69
2022/07/12 13:22:49;;;;;;;1.60;1.50;;;27.40;99.90;;;;;;5072992;28;20721;-70
2022/07/12 13:25:16;;;;;;;1.25;1.25;;;27.50;99.90;;;;;;5073139;28;20258;-70
2022/07/12 13:27:43;;;;;;;1.98;1.50;;;27.60;99.90;;;;;;5074117;28;20647;-70
2022/07/12 13:30:11;;;;;;;1.25;1.20;;;27.70;99.90;;;;;;5072949;28;20172;-70
2022/07/12 13:32:38;;;;;;;2.15;1.45;;;27.70;99.90;;;;;;5074077;28;20172;-70
2022/07/12 13:35:05;;;;;;;1.30;1.30;;;27.90;99.90;;;;;;5073974;28;20163;-70
2022/07/12 13:37:31;;;;;;;2.53;1.23;;;28.10;99.90;;;;;;5073674;28;20171;-71
2022/07/12 13:40:14;;;;;;;1.40;1.40;;;28.20;99.90;;;;;;5073851;28;20164;-71
2022/07/12 13:42:40;;;;;;;1.70;1.60;;;28.20;99.90;;;;;;5073756;28;20163;-71
2022/07/12 13:45:09;;;;;;;1.50;1.50;;;28.50;99.90;;;;;;5073945;28;20639;-71
2022/07/12 13:47:34;;;;;;;1.55;1.45;;;28.80;99.90;;;;;;5073676;28;20156;-71
2022/07/12 13:50:05;;;;;;;3.42;2.10;;;28.90;99.90;;;;;;5073052;28;20174;-71
2022/07/12 13:52:30;;;;;;;1.20;1.20;;;29.00;99.90;;;;;;5072427;28;20175;-71
2022/07/12 13:54:56;;;;;;;2.65;1.77;;;28.80;99.90;;;;;;5073370;28;20521;-71
2022/07/12 13:57:22;;;;;;;1.30;1.20;;;29.00;99.90;;;;;;5072950;28;20271;-71
2022/07/12 13:59:47;;;;;;;1.75;1.40;;;29.00;99.90;;;;;;5073000;28;20203;-71
2022/07/12 14:02:13;;;;;;;1.17;1.17;;;29.10;99.90;;;;;;5072935;28;20187;-71
2022/07/12 14:04:39;;;;;;;1.45;1.40;;;29.10;99.90;;;;;;5073272;28;20168;-71
2022/07/12 14:07:05;;;;;;;7.63;1.90;;;29.10;99.90;;;;;;5072818;28;20164;-72
2022/07/12 14:09:30;;;;;;;1.73;1.63;;;29.00;99.90;;;;;;5072408;28;20199;-72
2022/07/12 14:11:56;;;;;;;1.60;1.60;;;28.90;99.90;;;;;;5073580;28;20664;-71
2022/07/12 14:15:13;;;;;;;2.28;2.17;;;28.90;99.90;;;;;;5073287;28;20172;-71
2022/07/12 14:17:07;;;;;;;1.70;1.67;;;28.70;99.90;;;;;;5073430;28;20186;-71
2022/07/12 14:19:33;;;;;;;2.20;2.10;;;28.70;99.90;;;;;;5073336;28;20569;-71
2022/07/12 14:21:58;;;;;;;1.88;1.85;;;28.80;99.90;;;;;;5073360;28;20297;-72
2022/07/12 14:24:24;;;;;;;2.00;1.90;;;28.80;99.90;;;;;;5073342;28;20175;-71
2022/07/12 14:26:50;;;;;;;1.98;1.90;;;28.80;99.90;;;;;;5073299;28;20647;-70
2022/07/12 14:29:16;;;;;;;2.53;1.90;;;28.70;99.90;;;;;;5073256;28;20172;-70
2022/07/12 14:31:41;;;;;;;2.17;1.98;;;28.80;99.90;;;;;;5073258;28;20633;-71
2022/07/12 14:34:07;;;;;;;2.03;1.92;;;29.00;99.90;;;;;;5073269;28;20164;-70
2022/07/12 14:36:32;;;;;;;2.22;1.73;;;29.20;99.90;;;;;;5073222;28;20217;-70
2022/07/12 14:38:58;;;;;;;1.90;1.80;;;29.50;99.90;;;;;;5072977;28;20220;-71
2022/07/12 14:41:24;;;;;;;2.42;1.90;;;29.60;99.90;;;;;;5073129;28;20225;-71
2022/07/12 14:43:50;;;;;;;1.92;1.85;;;29.20;99.90;;;;;;5073123;28;20172;-73
2022/07/12 14:46:16;;;;;;;1.88;1.77;;;29.20;99.90;;;;;;5073039;28;20162;-73
2022/07/12 14:48:43;;;;;;;2.03;1.92;;;29.10;99.90;;;;;;5073135;28;20168;-73
2022/07/12 14:51:09;;;;;;;1.63;1.63;;;28.90;99.90;;;;;;5073025;28;20172;-73
2022/07/12 14:53:34;;;;;;;1.70;1.70;;;29.20;99.90;;;;;;5073036;28;20175;-72
2022/07/12 14:56:00;;;;;;;3.80;2.58;;;29.40;99.90;;;;;;5073083;28;20699;-72
2022/07/12 14:58:26;;;;;;;3.90;2.00;;;29.20;99.90;;;;;;5072927;28;20274;-72
2022/07/12 15:00:51;;;;;;;2.05;1.95;;;29.30;99.90;;;;;;5071761;28;20171;-76
2022/07/12 15:03:17;;;;;;;2.10;2.00;;;29.40;99.90;;;;;;5073005;28;20226;-75
2022/07/12 15:05:42;;;;;;;4.03;1.80;;;29.50;99.90;;;;;;5071736;28;20168;-72
2022/07/12 15:08:08;;;;;;;1.90;1.80;;;29.60;99.90;;;;;;5072928;28;20195;-76
2022/07/12 15:10:35;;;;;;;1.85;1.80;;;29.40;99.90;;;;;;5072754;28;20202;-77
2022/07/12 15:13:01;;;;;;;1.70;1.70;;;29.20;99.90;;;;;;5071494;28;20175;-77
2022/07/12 15:15:27;;;;;;;2.05;1.95;;;29.10;99.90;;;;;;5072734;28;20178;-72
2022/07/12 15:17:52;;;;;;;1.70;1.65;;;28.90;99.90;;;;;;5071481;28;20206;-72
2022/07/12 15:20:18;;;;;;;2.13;1.92;;;28.70;99.90;;;;;;5072749;28;20182;-72
2022/07/12 15:22:43;;;;;;;2.10;2.00;;;28.80;99.90;;;;;;5072724;28;20183;-72
2022/07/12 15:25:09;;;;;;;1.90;1.80;;;29.10;99.90;;;;;;5074006;28;20202;-72
2022/07/12 15:27:35;;;;;;;2.33;1.70;;;29.40;99.90;;;;;;5076418;28;20652;-71
2022/07/12 15:30:01;;;;;;;1.90;1.80;;;29.40;99.90;;;;;;5076382;28;20252;-74
2022/07/12 15:32:26;;;;;;;2.00;1.90;;;29.20;99.90;;;;;;5076392;28;20166;-71
2022/07/12 15:34:53;;;;;;;2.30;2.10;;;29.20;99.90;;;;;;5076195;28;20180;-73
2022/07/12 15:37:18;;;;;;;1.90;1.80;;;29.10;99.90;;;;;;5076305;28;20205;-72
2022/07/12 15:39:44;;;;;;;1.63;1.63;;;28.80;99.90;;;;;;5076057;28;20211;-73
2022/07/12 15:42:10;;;;;;;1.90;1.80;;;28.90;99.90;;;;;;5076218;28;20594;-73
2022/07/12 15:44:36;;;;;;;2.00;1.90;;;28.80;99.90;;;;;;5076216;28;20614;-72
2022/07/12 15:47:03;;;;;;;4.95;2.00;;;28.60;99.90;;;;;;5076165;28;20168;-74
2022/07/12 15:49:29;;;;;;;2.40;1.70;;;28.40;99.90;;;;;;5074880;28;20171;-72
2022/07/12 15:54:38;;;;;;;2.78;2.00;;;27.90;99.90;;;;;;5076035;28;20206;-72
2022/07/12 15:57:05;;;;;;;4.93;2.17;;;27.80;99.90;;;;;;5075912;28;20192;-72
2022/07/12 15:59:31;;;;;;;3.05;2.00;;;27.70;99.90;;;;;;5075952;28;20199;-73
2022/07/12 16:01:56;;;;;;;2.35;2.10;;;27.70;99.90;;;;;;5075971;28;20168;-72
2022/07/12 16:04:22;;;;;;;6.82;2.47;;;27.70;99.90;;;;;;5075977;28;20160;-72
2022/07/12 16:06:51;;;;;;;1.83;1.73;;;27.80;99.90;;;;;;5075840;28;20164;-72
2022/07/12 16:09:16;;;;;;;7.85;2.20;;;27.90;99.90;;;;;;5075700;28;20216;-72
2022/07/12 16:11:42;;;;;;;2.05;1.95;;;28.00;99.90;;;;;;5075783;28;20603;-72
2022/07/12 16:14:08;;;;;;;3.45;1.80;;;28.00;99.90;;;;;;5075806;28;20172;-72
2022/07/12 16:16:33;;;;;;;3.90;2.53;;;28.10;99.90;;;;;;5075695;28;20645;-72
2022/07/12 16:18:59;;;;;;;3.10;2.90;;;28.40;99.90;;;;;;5075540;28;20195;-72
2022/07/12 16:21:24;;;;;;;1.80;1.70;;;28.70;99.90;;;;;;5075567;28;20168;-72
2022/07/12 16:23:50;;;;;;;3.97;2.50;;;28.90;99.90;;;;;;5075423;28;20685;-72
2022/07/12 16:26:16;;;;;;;2.47;1.88;;;29.20;99.90;;;;;;5075401;28;20152;-72
2022/07/12 16:28:41;;;;;;;4.68;1.98;;;29.60;99.90;;;;;;5075457;28;20170;-72
2022/07/12 16:31:07;;;;;;;2.05;1.60;;;29.60;99.90;;;;;;5074108;28;20553;-72
2022/07/12 16:33:33;;;;;;;2.42;2.03;;;29.50;99.90;;;;;;5075297;28;20176;-72
2022/07/12 16:36:00;;;;;;;1.80;1.75;;;29.40;99.90;;;;;;5075203;28;20213;-72
2022/07/12 16:38:25;;;;;;;3.97;2.00;;;29.40;99.90;;;;;;5074970;28;20298;-72
2022/07/12 16:40:51;;;;;;;2.05;1.77;;;29.10;99.90;;;;;;5074042;28;20199;-72
2022/07/12 16:43:16;;;;;;;6.13;1.73;;;28.80;99.90;;;;;;5075161;28;20162;-72
2022/07/12 16:45:43;;;;;;;5.10;1.90;;;28.60;99.90;;;;;;5075160;28;20164;-71
2022/07/12 16:48:08;;;;;;;2.10;2.00;;;28.30;99.90;;;;;;5075610;28;20645;-71
2022/07/12 16:50:38;;;;;;;2.42;1.90;;;28.10;99.90;;;;;;5075031;28;20246;-72
2022/07/12 16:53:03;;;;;;;3.63;2.22;;;27.90;99.90;;;;;;5074998;28;20500;-71
2022/07/12 16:55:30;;;;;;;3.38;1.70;;;27.80;99.90;;;;;;5074955;28;20324;-71
2022/07/12 16:57:55;;;;;;;2.20;1.75;;;27.50;99.90;;;;;;5074924;28;20282;-71
2022/07/12 17:00:21;;;;;;;3.97;2.13;;;27.30;99.90;;;;;;5074798;28;20188;-71
2022/07/12 17:02:47;;;;;;;1.58;1.48;;;27.20;99.90;;;;;;5074870;28;20243;-71
2022/07/12 17:05:12;;;;;;;4.72;1.77;;;27.00;99.90;;;;;;5074374;28;20767;-71
2022/07/12 17:07:38;;;;;;;2.28;1.73;;;26.80;99.90;;;;;;5074601;28;20573;-71
2022/07/12 17:10:07;;;;;;;1.80;1.70;;;26.70;99.90;;;;;;5073310;28;20225;-71
2022/07/12 17:12:34;;;;;;;2.08;1.60;;;26.70;99.90;;;;;;5074519;28;20164;-71
2022/07/12 17:15:00;;;;;;;3.30;1.98;;;26.70;99.90;;;;;;5074579;28;20255;-71
2022/07/12 17:17:26;;;;;;;1.95;1.85;;;26.60;99.90;;;;;;5074491;28;20199;-71
2022/07/12 17:19:52;;;;;;;1.77;1.77;;;26.50;99.90;;;;;;5074361;28;20286;-71
2022/07/12 17:22:18;;;;;;;2.85;1.80;;;26.50;99.90;;;;;;5074333;28;20168;-71
2022/07/12 17:24:44;;;;;;;2.30;2.10;;;26.50;99.90;;;;;;5074356;28;20705;-71
2022/07/12 17:27:09;;;;;;;3.08;1.83;;;26.40;99.90;;;;;;5074316;28;20217;-71
2022/07/12 17:29:35;;;;;;;4.25;1.75;;;26.50;99.90;;;;;;5074256;28;20584;-71
2022/07/12 17:32:01;;;;;;;3.95;2.38;;;26.50;99.90;;;;;;5074124;28;20203;-72
2022/07/12 17:34:26;;;;;;;1.90;1.67;;;26.50;99.90;;;;;;5072982;28;20430;-72
2022/07/12 17:36:52;;;;;;;6.05;1.90;;;26.50;99.90;;;;;;5073923;28;20179;-72
2022/07/12 17:39:17;;;;;;;1.80;1.70;;;26.50;99.90;;;;;;5073824;28;20223;-71
2022/07/12 17:41:43;;;;;;;7.28;1.80;;;26.50;99.90;;;;;;5073982;28;20613;-71
2022/07/12 17:44:09;;;;;;;2.85;1.75;;;26.50;99.90;;;;;;5073930;28;20202;-71
2022/07/12 17:46:35;;;;;;;1.70;1.60;;;26.50;99.90;;;;;;5073874;28;20168;-71
2022/07/12 17:49:01;;;;;;;1.70;1.70;;;26.40;99.90;;;;;;5073340;28;20174;-71
2022/07/12 17:51:27;;;;;;;1.60;1.60;;;26.30;99.90;;;;;;5073755;28;20199;-71
2022/07/12 17:53:54;;;;;;;1.95;1.85;;;26.20;99.90;;;;;;5073751;28;20172;-71
2022/07/12 17:56:20;;;;;;;3.50;1.70;;;26.10;99.90;;;;;;5073731;28;20168;-71
2022/07/12 17:58:46;;;;;;;1.90;1.80;;;26.10;99.90;;;;;;5073591;28;20544;-73
2022/07/12 18:01:20;;;;;;;2.05;1.85;;;26.10;99.90;;;;;;5073683;28;20644;-73
2022/07/12 18:03:48;;;;;;;2.83;1.70;;;26.10;99.90;;;;;;5073692;28;20159;-73
2022/07/12 18:06:14;;;;;;;2.53;2.42;;;26.00;99.90;;;;;;5073621;28;20243;-73
2022/07/12 18:08:43;;;;;;;3.90;1.70;;;26.00;99.90;;;;;;5073434;28;20669;-73
2022/07/12 18:16:40;;;;;;;2.55;2.45;;;25.70;99.90;;;;;;5073671;28;20183;-73
2022/07/12 18:19:06;;;;;;;2.58;2.05;;;25.50;99.90;;;;;;5073320;28;20291;-73
2022/07/12 18:21:35;;;;;;;3.30;1.85;;;25.40;99.90;;;;;;5072157;28;20195;-73
2022/07/12 18:24:02;;;;;;;1.73;1.63;;;25.30;99.90;;;;;;5073405;28;20175;-73
2022/07/12 18:26:29;;;;;;;3.97;2.22;;;25.10;99.90;;;;;;5072039;28;20167;-73
2022/07/12 18:28:54;;;;;;;5.15;2.40;;;25.00;99.90;;;;;;5073262;28;20649;-73
2022/07/12 18:31:21;;;;;;;3.85;1.70;;;24.90;99.90;;;;;;5073401;28;20182;-73
2022/07/12 18:33:48;;;;;;;2.00;1.65;;;24.80;99.90;;;;;;5071629;28;20176;-74
2022/07/12 18:36:13;;;;;;;5.70;2.28;;;24.70;99.90;;;;;;5073252;28;20170;-74
2022/07/12 18:38:39;;;;;;;1.48;1.48;;;24.60;99.90;;;;;;5073161;28;20306;-74
2022/07/12 18:41:04;;;;;;;3.05;1.80;;;24.50;99.90;;;;;;5073246;28;20534;-74
2022/07/12 18:43:30;;;;;;;1.92;1.83;;;24.50;99.90;;;;;;5073154;28;20579;-74
2022/07/12 18:45:56;;;;;;;2.10;2.00;;;24.40;99.90;;;;;;5073239;28;20170;-74
